Time;durP1;ratioP1;P1;durP2;ratioP2;P2;SDS_P1;SDS_P2;PMS_P1;PMS_P2;Temp;Humidity;BMP_temperature;BMP_pressure;BME280_temperature;BME280_humidity;BME280_pressure;Samples;Min_cycle;Max_cycle;Signal;HPM_P1;HPM_P2
2023/10/22 00:00:37;;;;;;;23.80;18.03;;;;;22.00;98866.00;;;;2070899;28;20221;-67
2023/10/22 00:01:38;;;;;;;21.53;17.40;;;;;22.00;98844.00;;;;2072110;28;20218;-67
2023/10/22 00:02:38;;;;;;;21.50;16.63;;;;;22.00;98862.00;;;;2070397;28;20721;-67
2023/10/22 00:03:39;;;;;;;20.00;16.60;;;;;22.00;98858.00;;;;2067386;28;20211;-67
2023/10/22 00:04:40;;;;;;;21.47;16.60;;;;;22.00;98865.00;;;;2062380;28;20475;-67
2023/10/22 00:05:40;;;;;;;21.83;16.50;;;;;22.00;98871.00;;;;2065839;28;20226;-67
2023/10/22 00:06:42;;;;;;;21.33;17.37;;;;;22.00;98874.00;;;;2064926;28;20784;-67
2023/10/22 00:07:42;;;;;;;20.10;15.63;;;;;22.00;98876.00;;;;2061357;28;20215;-67
2023/10/22 00:08:43;;;;;;;24.00;15.50;;;;;22.00;98879.00;;;;2061545;28;20724;-67
2023/10/22 00:09:43;;;;;;;20.13;15.10;;;;;22.00;98870.00;;;;2049963;28;20285;-67
2023/10/22 00:10:44;;;;;;;21.20;15.47;;;;;22.00;98873.00;;;;2059789;28;20289;-67
2023/10/22 00:11:44;;;;;;;19.37;14.60;;;;;22.00;98850.00;;;;2057513;28;20219;-67
2023/10/22 00:12:44;;;;;;;19.70;15.07;;;;;22.00;98879.00;;;;2059981;28;20222;-67
2023/10/22 00:13:44;;;;;;;17.90;14.90;;;;;22.00;98876.00;;;;2061553;28;20592;-67
2023/10/22 00:14:45;;;;;;;18.07;14.33;;;;;22.00;98867.00;;;;2048536;28;20595;-67
2023/10/22 00:15:45;;;;;;;16.60;13.60;;;;;22.00;98872.00;;;;2060205;28;20729;-67
2023/10/22 00:16:45;;;;;;;17.40;13.77;;;;;22.00;98875.00;;;;2057973;28;20699;-67
2023/10/22 00:17:46;;;;;;;17.50;13.20;;;;;22.00;98882.00;;;;2056341;28;20705;-67
2023/10/22 00:18:47;;;;;;;18.30;14.17;;;;;22.00;98868.00;;;;2057510;28;20223;-67
2023/10/22 00:19:47;;;;;;;19.10;14.00;;;;;22.00;98874.00;;;;2058490;28;20248;-67
2023/10/22 00:20:47;;;;;;;16.80;13.23;;;;;22.00;98786.00;;;;2069584;28;20214;-67
2023/10/22 00:21:48;;;;;;;17.97;12.10;;;;;22.00;98882.00;;;;2056899;28;20302;-67
2023/10/22 00:22:48;;;;;;;17.40;13.40;;;;;22.00;98873.00;;;;2057398;28;20219;-67
2023/10/22 00:23:49;;;;;;;15.57;12.23;;;;;22.00;98878.00;;;;2062183;28;20243;-67
2023/10/22 00:24:49;;;;;;;15.93;11.93;;;;;21.90;98877.00;;;;2052304;28;20206;-67
2023/10/22 00:25:49;;;;;;;16.17;12.67;;;;;22.00;98869.00;;;;2063751;28;20229;-67
2023/10/22 00:26:50;;;;;;;16.90;12.87;;;;;21.90;98882.00;;;;2057957;28;20656;-67
2023/10/22 00:27:50;;;;;;;16.43;11.87;;;;;22.00;98872.00;;;;2059944;28;20729;-67
2023/10/22 00:28:50;;;;;;;16.50;12.03;;;;;21.90;98877.00;;;;2060697;28;20721;-67
2023/10/22 00:29:51;;;;;;;16.63;11.93;;;;;21.90;98870.00;;;;2052115;28;20643;-67
2023/10/22 00:30:51;;;;;;;14.10;11.97;;;;;21.90;98874.00;;;;2069563;28;20713;-67
2023/10/22 00:31:51;;;;;;;14.27;11.20;;;;;21.90;98881.00;;;;2062352;28;20254;-67
2023/10/22 00:32:52;;;;;;;15.13;11.43;;;;;21.90;98879.00;;;;2054869;28;20230;-67
2023/10/22 00:33:52;;;;;;;15.30;11.47;;;;;21.90;98889.00;;;;2064404;28;20294;-67
2023/10/22 00:34:52;;;;;;;14.53;11.20;;;;;21.90;98884.00;;;;2057491;28;20218;-67
2023/10/22 00:35:54;;;;;;;13.77;10.57;;;;;22.00;98841.00;;;;2070264;28;20257;-67
2023/10/22 00:36:55;;;;;;;13.98;11.65;;;;;21.90;98882.00;;;;2067823;28;20356;-67
2023/10/22 00:37:55;;;;;;;13.97;11.00;;;;;21.90;98878.00;;;;2075888;28;20609;-67
2023/10/22 00:38:55;;;;;;;13.27;10.90;;;;;21.90;98886.00;;;;2072277;28;20284;-67
2023/10/22 00:39:56;;;;;;;12.60;9.70;;;;;21.90;98885.00;;;;2063472;28;20229;-67
2023/10/22 00:40:56;;;;;;;13.40;10.00;;;;;21.90;98888.00;;;;2070632;28;20222;-67
2023/10/22 00:41:56;;;;;;;13.27;10.50;;;;;21.90;98890.00;;;;2061259;28;20214;-67
2023/10/22 00:42:57;;;;;;;12.03;10.00;;;;;21.90;98882.00;;;;2065450;28;20223;-67
2023/10/22 00:43:57;;;;;;;12.60;9.03;;;;;21.90;98830.00;;;;2064186;28;20819;-67
2023/10/22 00:44:57;;;;;;;12.17;9.70;;;;;21.90;98888.00;;;;2059181;28;20661;-67
2023/10/22 00:45:58;;;;;;;14.80;10.40;;;;;21.90;98892.00;;;;2071214;28;20674;-67
2023/10/22 00:46:58;;;;;;;12.47;9.67;;;;;21.90;98864.00;;;;2069808;28;20661;-67
2023/10/22 00:47:58;;;;;;;13.30;9.63;;;;;21.90;98893.00;;;;2064548;28;20723;-67
2023/10/22 00:48:59;;;;;;;14.03;9.70;;;;;21.90;98844.00;;;;2063892;28;20215;-67
2023/10/22 00:49:59;;;;;;;12.63;9.60;;;;;21.90;98888.00;;;;2057583;28;20229;-67
2023/10/22 00:50:59;;;;;;;11.10;8.70;;;;;21.90;98849.00;;;;2054367;28;20215;-67
2023/10/22 00:52:00;;;;;;;11.20;8.90;;;;;21.90;98896.00;;;;2023850;28;1054267;-67
2023/10/22 00:53:00;;;;;;;12.07;9.33;;;;;21.90;98898.00;;;;2059050;28;20582;-67
2023/10/22 00:54:01;;;;;;;11.47;8.43;;;;;21.90;98892.00;;;;2053730;28;20562;-67
2023/10/22 00:55:01;;;;;;;12.30;8.93;;;;;21.90;98893.00;;;;2051932;28;20277;-67
2023/10/22 00:56:03;;;;;;;11.00;7.97;;;;;21.90;98901.00;;;;2067933;28;20308;-67
2023/10/22 00:57:04;;;;;;;10.38;8.60;;;;;21.90;98895.00;;;;2062179;28;20237;-65
2023/10/22 00:58:04;;;;;;;10.00;8.10;;;;;21.90;98897.00;;;;2062556;28;20759;-65
2023/10/22 00:59:05;;;;;;;9.37;7.40;;;;;21.90;98899.00;;;;2064496;28;20982;-65
2023/10/22 01:00:07;;;;;;;10.40;8.83;;;;;21.90;98810.00;;;;2062612;28;20226;-64
2023/10/22 01:01:08;;;;;;;10.70;7.75;;;;;21.90;98897.00;;;;2054990;28;20295;-64
2023/10/22 01:02:08;;;;;;;11.33;8.23;;;;;21.90;98900.00;;;;2048694;28;20251;-64
2023/10/22 01:03:08;;;;;;;10.17;8.20;;;;;21.90;98894.00;;;;2065109;28;20215;-64
2023/10/22 01:04:09;;;;;;;9.43;7.80;;;;;21.90;98899.00;;;;2059083;28;20248;-64
2023/10/22 01:05:09;;;;;;;12.33;7.53;;;;;21.90;98907.00;;;;2068569;28;20210;-64
2023/10/22 01:06:09;;;;;;;9.47;7.60;;;;;21.90;98903.00;;;;2068653;28;20217;-64
2023/10/22 01:07:10;;;;;;;8.73;7.00;;;;;21.90;98902.00;;;;2056509;28;20219;-64
2023/10/22 01:08:10;;;;;;;8.73;6.83;;;;;21.90;98898.00;;;;2064527;28;20594;-64
2023/10/22 01:09:11;;;;;;;12.57;8.00;;;;;21.90;98909.00;;;;2053811;28;20265;-64
2023/10/22 01:10:12;;;;;;;9.50;7.13;;;;;21.90;98900.00;;;;2055104;28;20218;-64
2023/10/22 01:11:12;;;;;;;8.90;7.40;;;;;21.90;98887.00;;;;2071775;28;20445;-64
2023/10/22 01:12:12;;;;;;;10.37;7.20;;;;;21.90;98900.00;;;;2067886;28;20244;-64
2023/10/22 01:13:14;;;;;;;10.20;6.60;;;;;21.90;98902.00;;;;2063563;28;20246;-64
2023/10/22 01:14:14;;;;;;;8.55;6.05;;;;;21.90;98905.00;;;;2054570;28;20742;-64
2023/10/22 01:15:14;;;;;;;8.90;7.17;;;;;21.90;98875.00;;;;2059010;28;20226;-64
2023/10/22 01:16:15;;;;;;;12.83;6.87;;;;;21.90;98907.00;;;;2065462;28;20242;-64
2023/10/22 01:17:15;;;;;;;9.67;6.97;;;;;21.90;98903.00;;;;2063868;28;20277;-64
2023/10/22 01:18:15;;;;;;;8.83;6.20;;;;;21.70;98904.00;;;;2067053;28;20217;-64
2023/10/22 01:19:16;;;;;;;11.17;6.60;;;;;21.90;98901.00;;;;2056100;28;20229;-64
2023/10/22 01:20:16;;;;;;;9.30;7.00;;;;;21.90;98911.00;;;;2072587;28;20575;-64
2023/10/22 01:21:17;;;;;;;8.97;5.83;;;;;21.90;98880.00;;;;2072906;28;20272;-64
2023/10/22 01:22:17;;;;;;;8.00;6.40;;;;;21.90;98919.00;;;;2071982;28;20784;-64
2023/10/22 01:23:18;;;;;;;9.60;6.07;;;;;21.90;98908.00;;;;2057489;28;20239;-64
2023/10/22 01:24:18;;;;;;;7.70;5.80;;;;;21.90;98908.00;;;;2054443;28;20210;-64
2023/10/22 01:25:18;;;;;;;8.80;6.47;;;;;21.90;98920.00;;;;2066107;28;20215;-64
2023/10/22 01:26:18;;;;;;;7.37;5.30;;;;;21.90;98911.00;;;;2056277;28;20258;-64
2023/10/22 01:27:19;;;;;;;10.63;6.60;;;;;21.90;98919.00;;;;2059924;28;20251;-64
2023/10/22 01:28:19;;;;;;;7.60;5.40;;;;;21.90;98907.00;;;;2060582;28;20219;-64
2023/10/22 01:29:19;;;;;;;7.47;6.10;;;;;21.90;98917.00;;;;2054662;28;20241;-64
2023/10/22 01:30:20;;;;;;;6.60;5.57;;;;;21.90;98919.00;;;;2062517;28;20215;-64
2023/10/22 01:31:20;;;;;;;7.73;5.87;;;;;21.90;98917.00;;;;2056956;28;20219;-64
2023/10/22 01:32:21;;;;;;;6.70;5.17;;;;;21.90;98918.00;;;;2062099;28;20608;-64
2023/10/22 01:33:21;;;;;;;7.60;5.40;;;;;21.90;98928.00;;;;2064736;28;20215;-64
2023/10/22 01:34:21;;;;;;;8.27;5.63;;;;;21.90;98927.00;;;;2054828;28;20214;-64
2023/10/22 01:35:22;;;;;;;8.13;5.93;;;;;21.90;98932.00;;;;2069978;28;20214;-64
2023/10/22 01:36:22;;;;;;;7.90;5.40;;;;;21.90;98917.00;;;;2057030;28;20216;-64
2023/10/22 01:37:23;;;;;;;7.90;5.37;;;;;21.90;98927.00;;;;2065433;28;20222;-64
2023/10/22 01:38:23;;;;;;;8.20;5.13;;;;;21.80;98925.00;;;;2057515;28;20606;-64
2023/10/22 01:39:24;;;;;;;7.07;4.93;;;;;21.80;98919.00;;;;2051786;28;20325;-64
2023/10/22 01:40:24;;;;;;;5.70;4.50;;;;;21.90;98925.00;;;;2067141;28;20206;-64
2023/10/22 01:41:25;;;;;;;6.17;4.47;;;;;21.80;98916.00;;;;2071037;28;20280;-64
2023/10/22 01:42:26;;;;;;;5.85;4.45;;;;;21.80;98894.00;;;;2070599;28;20217;-64
2023/10/22 01:43:26;;;;;;;7.67;5.37;;;;;21.80;98923.00;;;;2066586;28;20249;-64
2023/10/22 01:44:26;;;;;;;7.40;5.40;;;;;21.80;98920.00;;;;2062399;28;20227;-64
2023/10/22 01:45:27;;;;;;;7.70;6.00;;;;;21.80;98920.00;;;;2072828;28;20264;-64
2023/10/22 01:46:27;;;;;;;8.43;5.47;;;;;21.80;98866.00;;;;2070157;28;20577;-64
2023/10/22 01:47:27;;;;;;;5.40;4.50;;;;;21.80;98898.00;;;;2070273;28;20248;-64
2023/10/22 01:48:28;;;;;;;6.37;4.70;;;;;21.80;98920.00;;;;2069719;28;20225;-64
2023/10/22 01:49:28;;;;;;;6.13;4.30;;;;;21.80;98925.00;;;;2051478;28;20230;-64
2023/10/22 01:50:29;;;;;;;6.93;4.80;;;;;21.80;98932.00;;;;2064050;28;20214;-64
2023/10/22 01:51:29;;;;;;;5.03;4.07;;;;;21.80;98924.00;;;;2068569;28;20230;-64
2023/10/22 01:52:29;;;;;;;4.90;4.00;;;;;21.80;98921.00;;;;2067394;28;20239;-64
2023/10/22 01:53:30;;;;;;;6.00;4.10;;;;;21.80;98926.00;;;;2074121;28;20272;-64
2023/10/22 01:54:30;;;;;;;5.90;4.33;;;;;21.80;98934.00;;;;2067849;28;20237;-64
2023/10/22 01:55:30;;;;;;;5.20;4.03;;;;;21.80;98931.00;;;;2072139;28;20238;-64
2023/10/22 01:56:31;;;;;;;7.37;4.97;;;;;21.80;98936.00;;;;2072746;28;20690;-64
2023/10/22 01:57:33;;;;;;;6.33;4.00;;;;;21.80;98927.00;;;;2064744;28;20697;-64
2023/10/22 01:58:33;;;;;;;5.10;3.80;;;;;21.80;98933.00;;;;2071462;28;20222;-64
2023/10/22 01:59:33;;;;;;;6.70;4.90;;;;;21.80;98931.00;;;;2059155;28;20226;-64
2023/10/22 02:00:34;;;;;;;5.40;3.90;;;;;21.80;98937.00;;;;2068961;28;20217;-64
2023/10/22 02:01:34;;;;;;;6.90;4.27;;;;;21.60;98885.00;;;;2069329;28;20211;-64
2023/10/22 02:02:35;;;;;;;5.50;4.00;;;;;21.80;98941.00;;;;2063676;28;20242;-64
2023/10/22 02:03:36;;;;;;;5.18;4.18;;;;;21.80;98877.00;;;;2064290;28;20211;-64
2023/10/22 02:04:36;;;;;;;5.40;4.17;;;;;21.80;98937.00;;;;2037944;28;20283;-64
2023/10/22 02:05:36;;;;;;;4.37;3.30;;;;;21.80;98934.00;;;;2038776;28;20287;-64
2023/10/22 02:06:37;;;;;;;4.77;3.80;;;;;21.80;98943.00;;;;2055549;28;20254;-64
2023/10/22 02:07:39;;;;;;;5.10;3.87;;;;;21.80;98937.00;;;;2062466;28;20757;-64
2023/10/22 02:08:39;;;;;;;5.70;3.95;;;;;21.80;98942.00;;;;2072793;28;20298;-64
2023/10/22 02:09:40;;;;;;;4.13;3.20;;;;;21.80;98947.00;;;;2059855;28;20219;-64
2023/10/22 02:10:40;;;;;;;5.67;4.23;;;;;21.80;98942.00;;;;2069663;28;20216;-64
2023/10/22 02:11:40;;;;;;;6.97;4.00;;;;;21.80;98948.00;;;;2060500;28;20215;-64
2023/10/22 02:12:41;;;;;;;4.77;3.83;;;;;21.80;98950.00;;;;2061180;28;20215;-64
2023/10/22 02:13:41;;;;;;;4.53;3.30;;;;;21.80;98936.00;;;;2064604;28;20210;-64
2023/10/22 02:14:41;;;;;;;4.70;3.47;;;;;21.80;98944.00;;;;2055120;28;20270;-64
2023/10/22 02:15:42;;;;;;;3.90;3.10;;;;;21.80;98940.00;;;;2067607;28;20950;-64
2023/10/22 02:16:42;;;;;;;4.40;3.30;;;;;21.80;98950.00;;;;2059996;28;20219;-64
2023/10/22 02:17:42;;;;;;;5.53;3.70;;;;;21.80;98950.00;;;;2059506;28;20728;-64
2023/10/22 02:18:43;;;;;;;4.20;3.23;;;;;21.80;98955.00;;;;2057185;28;20211;-64
2023/10/22 02:19:43;;;;;;;4.80;3.43;;;;;21.80;98952.00;;;;2053257;28;20221;-64
2023/10/22 02:20:54;;;;;;;4.20;3.00;;;;;21.80;98948.00;;;;2064734;28;20215;-64
2023/10/22 02:21:55;;;;;;;4.68;3.17;;;;;21.80;98953.00;;;;2068852;28;20221;-64
2023/10/22 02:22:57;;;;;;;3.90;2.77;;;;;21.80;98951.00;;;;2067258;28;20211;-64
2023/10/22 02:23:57;;;;;;;4.68;3.17;;;;;21.80;98953.00;;;;2067854;28;20219;-64
2023/10/22 02:24:57;;;;;;;4.13;2.70;;;;;21.80;98948.00;;;;2054438;28;20229;-64
2023/10/22 02:25:58;;;;;;;4.53;3.03;;;;;21.80;98893.00;;;;2072618;28;20218;-64
2023/10/22 02:26:58;;;;;;;4.63;3.37;;;;;21.80;98953.00;;;;2061558;28;20223;-64
2023/10/22 02:27:59;;;;;;;3.67;3.00;;;;;21.80;98959.00;;;;2057412;28;20216;-64
2023/10/22 02:29:00;;;;;;;4.82;2.95;;;;;21.80;98954.00;;;;2063831;28;20207;-64
2023/10/22 02:30:00;;;;;;;4.90;3.20;;;;;21.80;98950.00;;;;2056593;28;20574;-64
2023/10/22 02:31:00;;;;;;;5.57;3.10;;;;;21.80;98953.00;;;;2059660;28;20203;-64
2023/10/22 02:32:01;;;;;;;2.90;2.40;;;;;21.80;98954.00;;;;2062856;28;20211;-64
2023/10/22 02:33:01;;;;;;;5.90;3.20;;;;;21.80;98961.00;;;;2063654;28;20695;-64
2023/10/22 02:34:03;;;;;;;5.47;2.80;;;;;21.80;98961.00;;;;2064222;28;20211;-64
2023/10/22 02:35:04;;;;;;;3.22;2.88;;;;;21.80;98953.00;;;;2050143;28;20219;-64
2023/10/22 02:36:06;;;;;;;4.80;2.87;;;;;21.80;98961.00;;;;2057526;28;20833;-64
2023/10/22 02:37:07;;;;;;;4.05;2.75;;;;;21.70;98968.00;;;;2063699;28;20470;-64
2023/10/22 02:38:08;;;;;;;3.63;2.50;;;;;21.80;98966.00;;;;2057355;28;20216;-64
2023/10/22 02:39:08;;;;;;;3.03;2.60;;;;;21.60;98923.00;;;;2059015;28;22545;-64
2023/10/22 02:40:09;;;;;;;4.40;2.70;;;;;21.80;98958.00;;;;2063472;28;20466;-64
2023/10/22 02:41:09;;;;;;;6.75;2.65;;;;;21.80;98969.00;;;;2063512;28;20218;-64
2023/10/22 02:42:10;;;;;;;3.70;2.30;;;;;21.70;98965.00;;;;2062888;28;20249;-64
2023/10/22 02:43:11;;;;;;;3.50;2.60;;;;;21.70;98959.00;;;;2057741;28;20230;-64
2023/10/22 02:44:11;;;;;;;4.07;3.10;;;;;21.80;98968.00;;;;2057293;28;20214;-64
2023/10/22 02:45:12;;;;;;;4.00;2.63;;;;;21.80;98973.00;;;;2070748;28;20734;-64
2023/10/22 02:46:12;;;;;;;4.23;2.53;;;;;21.80;98968.00;;;;2063939;28;20850;-64
2023/10/22 02:47:13;;;;;;;4.40;2.43;;;;;21.80;98968.00;;;;2047712;28;20220;-64
2023/10/22 02:48:13;;;;;;;5.03;2.00;;;;;21.70;98959.00;;;;2059030;28;20230;-64
2023/10/22 02:49:13;;;;;;;4.33;2.63;;;;;21.70;98968.00;;;;2054589;28;20219;-64
2023/10/22 02:50:14;;;;;;;4.27;2.50;;;;;21.80;98972.00;;;;2072225;28;20218;-64
2023/10/22 02:51:14;;;;;;;6.37;2.37;;;;;21.70;98962.00;;;;2074566;28;20557;-64
2023/10/22 02:52:14;;;;;;;2.93;2.30;;;;;21.70;98966.00;;;;2064215;28;20221;-64
2023/10/22 02:53:16;;;;;;;3.70;2.57;;;;;21.70;98963.00;;;;2066180;28;20219;-64
2023/10/22 02:54:16;;;;;;;5.55;2.42;;;;;21.70;98964.00;;;;2047526;28;20227;-64
2023/10/22 02:55:17;;;;;;;3.60;2.50;;;;;21.70;98967.00;;;;2064794;28;20571;-64
2023/10/22 02:56:17;;;;;;;2.57;2.10;;;;;21.70;98963.00;;;;2066004;28;20219;-64
2023/10/22 02:57:17;;;;;;;3.17;1.93;;;;;21.70;98965.00;;;;2048481;28;20227;-64
2023/10/22 02:58:18;;;;;;;4.20;2.40;;;;;21.70;98972.00;;;;2064196;28;20238;-64
2023/10/22 02:59:18;;;;;;;3.20;2.03;;;;;21.70;98970.00;;;;2048078;28;20231;-64
2023/10/22 03:00:19;;;;;;;2.63;1.90;;;;;21.70;98968.00;;;;2063344;28;20219;-64
2023/10/22 03:01:19;;;;;;;3.10;2.33;;;;;21.70;98966.00;;;;2063195;28;20258;-64
2023/10/22 03:02:20;;;;;;;3.70;2.17;;;;;21.70;98962.00;;;;2063467;28;20207;-64
2023/10/22 03:03:20;;;;;;;3.60;1.80;;;;;21.70;98962.00;;;;2067123;28;20260;-64
2023/10/22 03:04:20;;;;;;;2.60;1.77;;;;;21.70;98967.00;;;;2056061;28;20527;-64
2023/10/22 03:05:20;;;;;;;2.60;1.80;;;;;21.70;98974.00;;;;2069502;28;20700;-64
2023/10/22 03:06:21;;;;;;;3.07;1.97;;;;;21.70;98970.00;;;;2063525;28;20710;-64
2023/10/22 03:07:24;;;;;;;2.73;1.90;;;;;21.70;98986.00;;;;2063052;28;20576;-64
2023/10/22 03:08:25;;;;;;;2.80;1.75;;;;;21.70;98985.00;;;;2070454;28;20221;-64
2023/10/22 03:09:25;;;;;;;4.50;1.80;;;;;21.70;98988.00;;;;2064023;28;20209;-64
2023/10/22 03:10:26;;;;;;;3.63;2.07;;;;;21.70;98986.00;;;;2076215;28;20216;-64
2023/10/22 03:11:26;;;;;;;2.33;1.90;;;;;21.70;99001.00;;;;2069897;28;20210;-64
2023/10/22 03:12:26;;;;;;;3.23;2.10;;;;;21.70;98992.00;;;;2076154;28;20728;-64
2023/10/22 03:13:26;;;;;;;3.10;1.87;;;;;21.70;98995.00;;;;2079777;28;20246;-64
2023/10/22 03:14:27;;;;;;;3.20;1.90;;;;;21.70;98989.00;;;;2061594;28;20226;-64
2023/10/22 03:15:27;;;;;;;2.83;1.60;;;;;21.70;98986.00;;;;2072180;28;20721;-64
2023/10/22 03:16:27;;;;;;;3.27;2.10;;;;;21.70;98986.00;;;;2069848;28;20685;-64
2023/10/22 03:17:28;;;;;;;3.00;1.67;;;;;21.70;98998.00;;;;2074355;28;20575;-64
2023/10/22 03:18:28;;;;;;;3.27;1.80;;;;;21.70;98994.00;;;;2069244;28;20604;-64
2023/10/22 03:19:29;;;;;;;3.83;1.80;;;;;21.70;98994.00;;;;2060425;28;20241;-64
2023/10/22 03:20:35;;;;;;;2.93;2.03;;;;;21.70;98998.00;;;;2072191;28;20230;-64
2023/10/22 03:21:36;;;;;;;2.53;1.55;;;;;21.70;98987.00;;;;2072909;28;20701;-64
2023/10/22 03:22:36;;;;;;;2.50;1.43;;;;;21.70;99004.00;;;;2070802;28;20203;-64
2023/10/22 03:23:40;;;;;;;3.27;1.63;;;;;21.70;99009.00;;;;2065108;28;20207;-64
2023/10/22 03:24:41;;;;;;;2.20;1.42;;;;;21.70;99005.00;;;;2064003;28;20249;-64
2023/10/22 03:25:42;;;;;;;2.20;1.63;;;;;21.70;99018.00;;;;2072107;28;20210;-64
2023/10/22 03:26:42;;;;;;;2.22;1.60;;;;;21.70;99013.00;;;;2063597;28;20223;-64
2023/10/22 03:27:43;;;;;;;3.33;1.60;;;;;21.70;99019.00;;;;2055539;28;20642;-64
2023/10/22 03:28:43;;;;;;;2.77;1.97;;;;;21.70;99016.00;;;;2065799;28;20205;-64
2023/10/22 03:29:44;;;;;;;2.73;1.70;;;;;21.70;99009.00;;;;2062239;28;20273;-64
2023/10/22 03:30:44;;;;;;;3.60;1.83;;;;;21.70;99012.00;;;;2072226;28;20569;-64
2023/10/22 03:31:45;;;;;;;2.70;1.53;;;;;21.70;99009.00;;;;2060979;28;20641;-64
2023/10/22 03:32:45;;;;;;;2.77;1.50;;;;;21.70;99023.00;;;;2059585;28;20598;-64
2023/10/22 03:33:45;;;;;;;2.80;1.57;;;;;21.70;99015.00;;;;2064237;28;20665;-64
2023/10/22 03:34:46;;;;;;;3.30;1.90;;;;;21.70;99009.00;;;;2053092;28;20674;-64
2023/10/22 03:35:47;;;;;;;2.27;1.50;;;;;21.70;99029.00;;;;2062542;28;20283;-64
2023/10/22 03:36:48;;;;;;;2.17;1.30;;;;;21.70;99018.00;;;;2064048;28;20223;-64
2023/10/22 03:37:49;;;;;;;2.27;1.57;;;;;21.70;99023.00;;;;2058460;28;20220;-64
2023/10/22 03:38:49;;;;;;;2.93;1.57;;;;;21.70;99025.00;;;;2062344;28;20242;-64
2023/10/22 03:39:49;;;;;;;2.80;1.50;;;;;21.70;99012.00;;;;2049399;28;20231;-64
2023/10/22 03:40:56;;;;;;;1.90;1.27;;;;;21.70;99024.00;;;;2062523;28;20590;-64
2023/10/22 03:41:57;;;;;;;2.53;1.20;;;;;21.70;99025.00;;;;2063330;28;20294;-64
2023/10/22 03:42:57;;;;;;;2.57;1.13;;;;;21.70;99020.00;;;;2063756;28;20257;-64
2023/10/22 03:43:58;;;;;;;2.70;1.40;;;;;21.60;99027.00;;;;2057867;28;20224;-64
2023/10/22 03:45:00;;;;;;;2.70;1.40;;;;;21.60;99020.00;;;;2052669;28;20214;-64
2023/10/22 03:46:01;;;;;;;2.10;1.23;;;;;21.70;99024.00;;;;2063055;28;20215;-64
2023/10/22 03:47:01;;;;;;;1.83;1.20;;;;;21.70;99020.00;;;;2076984;28;20206;-64
2023/10/22 03:48:01;;;;;;;2.77;1.30;;;;;21.60;99023.00;;;;2077185;28;20465;-64
2023/10/22 03:49:02;;;;;;;2.13;1.40;;;;;21.60;99038.00;;;;2065195;28;20697;-64
2023/10/22 03:50:02;;;;;;;2.07;1.30;;;;;21.60;99029.00;;;;2058989;28;20242;-64
2023/10/22 03:51:03;;;;;;;1.70;1.23;;;;;21.70;99037.00;;;;2073183;28;20214;-64
2023/10/22 03:52:05;;;;;;;2.00;1.20;;;;;21.60;99033.00;;;;2072287;28;20237;-64
2023/10/22 03:53:05;;;;;;;3.50;1.52;;;;;21.70;99041.00;;;;2076998;28;20229;-64
2023/10/22 03:54:06;;;;;;;3.60;1.57;;;;;21.70;99038.00;;;;2064816;28;20230;-64
2023/10/22 03:55:06;;;;;;;2.70;1.90;;;;;21.60;99038.00;;;;2061483;28;20221;-64
2023/10/22 03:56:07;;;;;;;2.60;1.40;;;;;21.70;99039.00;;;;2066593;28;20214;-64
2023/10/22 03:57:07;;;;;;;1.87;1.33;;;;;21.70;99044.00;;;;2065237;28;20237;-64
2023/10/22 03:58:08;;;;;;;2.40;1.00;;;;;21.60;99047.00;;;;2069458;28;20218;-64
2023/10/22 03:59:08;;;;;;;3.50;1.40;;;;;21.70;99057.00;;;;2067882;28;20272;-64
2023/10/22 04:00:10;;;;;;;2.60;1.17;;;;;21.60;99053.00;;;;2072003;28;20907;-64
2023/10/22 04:01:10;;;;;;;1.75;1.25;;;;;21.60;99056.00;;;;2059201;28;20350;-64
2023/10/22 04:02:11;;;;;;;2.30;1.40;;;;;21.70;99049.00;;;;2065021;28;20214;-64
2023/10/22 04:03:11;;;;;;;1.57;1.10;;;;;21.70;99056.00;;;;2072060;28;20218;-64
2023/10/22 04:04:11;;;;;;;1.40;1.00;;;;;21.60;99056.00;;;;2055035;28;20250;-64
2023/10/22 04:05:12;;;;;;;1.93;1.00;;;;;21.60;99056.00;;;;2069917;28;20226;-64
2023/10/22 04:06:12;;;;;;;2.70;1.20;;;;;21.60;99020.00;;;;2063530;28;20234;-64
2023/10/22 04:07:12;;;;;;;1.73;0.93;;;;;21.60;99061.00;;;;2067048;28;20277;-64
2023/10/22 04:08:13;;;;;;;1.60;1.20;;;;;21.60;99061.00;;;;2063828;28;20671;-64
2023/10/22 04:09:13;;;;;;;1.97;1.20;;;;;21.60;99059.00;;;;2052262;28;20245;-64
2023/10/22 04:10:15;;;;;;;2.17;0.97;;;;;21.60;99064.00;;;;2066122;28;20317;-64
2023/10/22 04:11:18;;;;;;;1.98;1.20;;;;;21.60;99059.00;;;;2071818;28;20218;-64
2023/10/22 04:12:19;;;;;;;2.05;1.05;;;;;21.60;99074.00;;;;2072004;28;20277;-64
2023/10/22 04:13:19;;;;;;;1.80;0.90;;;;;21.60;99068.00;;;;2072081;28;20221;-64
2023/10/22 04:14:20;;;;;;;1.80;1.03;;;;;21.60;99067.00;;;;2061509;28;20202;-64
2023/10/22 04:15:20;;;;;;;2.20;1.10;;;;;21.60;99009.00;;;;2062665;28;20261;-64
2023/10/22 04:16:20;;;;;;;1.67;1.00;;;;;21.60;99058.00;;;;2055154;28;20842;-64
2023/10/22 04:17:20;;;;;;;1.73;0.90;;;;;21.60;99044.00;;;;2056022;28;20265;-64
2023/10/22 04:18:21;;;;;;;3.23;1.40;;;;;21.60;99074.00;;;;2063859;28;20223;-64
2023/10/22 04:19:21;;;;;;;2.10;1.07;;;;;21.60;99071.00;;;;2057675;28;20225;-64
2023/10/22 04:20:22;;;;;;;1.70;1.00;;;;;21.60;99075.00;;;;2079408;28;20217;-64
2023/10/22 04:21:22;;;;;;;2.33;1.20;;;;;21.60;99077.00;;;;2077383;28;20240;-64
2023/10/22 04:22:22;;;;;;;2.47;1.27;;;;;21.60;99085.00;;;;2075580;28;20221;-64
2023/10/22 04:23:23;;;;;;;2.50;1.10;;;;;21.60;99079.00;;;;2072236;28;20211;-64
2023/10/22 04:24:23;;;;;;;1.27;0.93;;;;;21.60;99086.00;;;;2060252;28;20574;-64
2023/10/22 04:25:23;;;;;;;1.33;0.87;;;;;21.60;99081.00;;;;2066902;28;20675;-64
2023/10/22 04:26:23;;;;;;;1.97;0.80;;;;;21.60;99092.00;;;;2072954;28;20702;-64
2023/10/22 04:27:24;;;;;;;2.03;0.90;;;;;21.60;99089.00;;;;2067648;28;20206;-64
2023/10/22 04:28:24;;;;;;;1.40;0.70;;;;;21.60;99085.00;;;;2057691;28;20738;-64
2023/10/22 04:29:25;;;;;;;1.67;0.97;;;;;21.60;99092.00;;;;2061777;28;20206;-64
2023/10/22 04:30:25;;;;;;;1.43;0.80;;;;;21.60;99089.00;;;;2069859;28;20214;-64
2023/10/22 04:31:26;;;;;;;2.20;1.20;;;;;21.60;99096.00;;;;2061358;28;20215;-64
2023/10/22 04:32:26;;;;;;;1.27;0.90;;;;;21.60;99090.00;;;;2063998;28;20207;-64
2023/10/22 04:33:26;;;;;;;1.63;0.87;;;;;21.60;99098.00;;;;2063289;28;20210;-64
2023/10/22 04:34:27;;;;;;;2.70;1.17;;;;;21.60;99098.00;;;;2053539;28;20207;-64
2023/10/22 04:35:27;;;;;;;1.50;0.90;;;;;21.60;99100.00;;;;2059802;28;20662;-64
2023/10/22 04:36:28;;;;;;;1.70;0.70;;;;;21.60;99105.00;;;;2061876;28;20269;-64
2023/10/22 04:37:28;;;;;;;1.30;0.77;;;;;21.60;99115.00;;;;2061797;28;20258;-64
2023/10/22 04:38:29;;;;;;;2.27;1.07;;;;;21.60;99107.00;;;;2060178;28;20274;-64
2023/10/22 04:39:30;;;;;;;1.80;0.88;;;;;21.60;99114.00;;;;2051349;28;20218;-64
2023/10/22 04:40:34;;;;;;;3.70;1.10;;;;;21.60;99107.00;;;;2069984;28;20224;-64
2023/10/22 04:41:35;;;;;;;1.58;0.95;;;;;21.60;99112.00;;;;2063757;28;20702;-64
2023/10/22 04:42:35;;;;;;;1.10;0.60;;;;;21.60;99121.00;;;;2061031;28;20200;-64
2023/10/22 04:43:35;;;;;;;1.27;0.90;;;;;21.60;99119.00;;;;2063690;28;20222;-64
2023/10/22 04:44:35;;;;;;;1.40;0.80;;;;;21.60;99113.00;;;;2052770;28;20234;-64
2023/10/22 04:45:36;;;;;;;1.50;0.63;;;;;21.60;99109.00;;;;2062954;28;20210;-64
2023/10/22 04:46:36;;;;;;;1.90;0.90;;;;;21.60;99121.00;;;;2060799;28;20235;-64
2023/10/22 04:47:36;;;;;;;1.13;0.70;;;;;21.60;99066.00;;;;2058928;28;20217;-64
2023/10/22 04:48:37;;;;;;;1.70;0.87;;;;;21.60;99120.00;;;;2063860;28;20218;-64
2023/10/22 04:49:37;;;;;;;1.27;0.60;;;;;21.60;99123.00;;;;2054050;28;20285;-64
2023/10/22 04:50:38;;;;;;;1.33;0.80;;;;;21.60;99118.00;;;;2073772;28;20300;-64
2023/10/22 04:51:39;;;;;;;1.30;0.73;;;;;21.60;99128.00;;;;2068150;28;20241;-64
2023/10/22 04:52:39;;;;;;;1.30;0.80;;;;;21.60;99124.00;;;;2067409;28;20229;-64
2023/10/22 04:53:39;;;;;;;1.73;0.70;;;;;21.60;99124.00;;;;2068299;28;20217;-64
2023/10/22 04:54:39;;;;;;;1.97;0.80;;;;;21.60;99126.00;;;;2060852;28;20214;-64
2023/10/22 04:55:40;;;;;;;1.10;0.60;;;;;21.60;99133.00;;;;2067257;28;20256;-64
2023/10/22 04:56:40;;;;;;;1.27;0.80;;;;;21.60;99132.00;;;;2061660;28;20208;-64
2023/10/22 04:57:40;;;;;;;2.80;0.77;;;;;21.60;99134.00;;;;2060478;28;20237;-64
2023/10/22 04:58:41;;;;;;;1.30;0.70;;;;;21.60;99137.00;;;;2063723;28;20207;-64
2023/10/22 04:59:41;;;;;;;1.20;0.70;;;;;21.60;99144.00;;;;2054800;28;20223;-64
2023/10/22 05:00:41;;;;;;;1.37;0.70;;;;;21.50;99139.00;;;;2064413;28;20254;-64
2023/10/22 05:01:42;;;;;;;1.60;0.70;;;;;21.50;99142.00;;;;2065478;28;20207;-64